sensor_id;sensor_type;location;lat;lon;timestamp;P1;durP1;ratioP1;P2;durP2;ratioP2
14316;SDS011;7242;50.858;6.586;2023-02-18T00:01:02;9.03;;;8.23;;
14316;SDS011;7242;50.858;6.586;2023-02-18T00:04:08;8.77;;;7.97;;
14316;SDS011;7242;50.858;6.586;2023-02-18T00:07:08;8.63;;;7.83;;
14316;SDS011;7242;50.858;6.586;2023-02-18T00:10:12;9.00;;;8.10;;
14316;SDS011;7242;50.858;6.586;2023-02-18T00:13:14;8.07;;;7.37;;
14316;SDS011;7242;50.858;6.586;2023-02-18T00:16:15;8.00;;;7.30;;
14316;SDS011;7242;50.858;6.586;2023-02-18T00:19:17;8.30;;;7.50;;
14316;SDS011;7242;50.858;6.586;2023-02-18T00:22:19;9.83;;;7.90;;
14316;SDS011;7242;50.858;6.586;2023-02-18T00:25:20;8.47;;;7.67;;
14316;SDS011;7242;50.858;6.586;2023-02-18T00:28:20;8.10;;;7.40;;
14316;SDS011;7242;50.858;6.586;2023-02-18T00:31:22;8.30;;;7.60;;
14316;SDS011;7242;50.858;6.586;2023-02-18T00:34:25;8.40;;;7.70;;
14316;SDS011;7242;50.858;6.586;2023-02-18T00:37:27;8.83;;;8.03;;
14316;SDS011;7242;50.858;6.586;2023-02-18T00:40:28;8.27;;;7.57;;
14316;SDS011;7242;50.858;6.586;2023-02-18T00:43:29;8.80;;;7.47;;
14316;SDS011;7242;50.858;6.586;2023-02-18T00:46:30;9.27;;;8.47;;
14316;SDS011;7242;50.858;6.586;2023-02-18T00:49:31;9.00;;;8.20;;
14316;SDS011;7242;50.858;6.586;2023-02-18T00:52:32;8.93;;;8.13;;
14316;SDS011;7242;50.858;6.586;2023-02-18T00:55:41;9.57;;;8.67;;
14316;SDS011;7242;50.858;6.586;2023-02-18T00:58:42;9.20;;;8.47;;
14316;SDS011;7242;50.858;6.586;2023-02-18T01:01:44;9.53;;;8.70;;
14316;SDS011;7242;50.858;6.586;2023-02-18T01:04:44;10.23;;;9.33;;
14316;SDS011;7242;50.858;6.586;2023-02-18T01:07:46;11.00;;;9.93;;
14316;SDS011;7242;50.858;6.586;2023-02-18T01:10:47;10.37;;;9.43;;
14316;SDS011;7242;50.858;6.586;2023-02-18T01:13:52;10.90;;;9.90;;
14316;SDS011;7242;50.858;6.586;2023-02-18T01:16:53;9.80;;;8.90;;
14316;SDS011;7242;50.858;6.586;2023-02-18T01:19:54;9.63;;;8.73;;
14316;SDS011;7242;50.858;6.586;2023-02-18T01:22:58;9.60;;;8.77;;
14316;SDS011;7242;50.858;6.586;2023-02-18T01:25:59;9.83;;;8.93;;
14316;SDS011;7242;50.858;6.586;2023-02-18T01:28:59;9.90;;;9.00;;
14316;SDS011;7242;50.858;6.586;2023-02-18T01:32:00;9.77;;;8.87;;
14316;SDS011;7242;50.858;6.586;2023-02-18T01:35:02;9.60;;;8.73;;
14316;SDS011;7242;50.858;6.586;2023-02-18T01:38:04;9.60;;;8.70;;
14316;SDS011;7242;50.858;6.586;2023-02-18T01:41:05;9.40;;;8.60;;
14316;SDS011;7242;50.858;6.586;2023-02-18T01:44:20;8.77;;;8.07;;
14316;SDS011;7242;50.858;6.586;2023-02-18T01:47:23;8.27;;;7.57;;
14316;SDS011;7242;50.858;6.586;2023-02-18T01:50:25;8.60;;;7.77;;
14316;SDS011;7242;50.858;6.586;2023-02-18T01:53:29;8.07;;;7.37;;
14316;SDS011;7242;50.858;6.586;2023-02-18T01:56:45;8.20;;;7.23;;
14316;SDS011;7242;50.858;6.586;2023-02-18T02:02:50;7.50;;;6.80;;
14316;SDS011;7242;50.858;6.586;2023-02-18T02:05:52;7.17;;;6.57;;
14316;SDS011;7242;50.858;6.586;2023-02-18T02:08:54;6.80;;;6.20;;
14316;SDS011;7242;50.858;6.586;2023-02-18T02:12:02;6.10;;;5.60;;
14316;SDS011;7242;50.858;6.586;2023-02-18T02:21:57;5.20;;;4.80;;
14316;SDS011;7242;50.858;6.586;2023-02-18T02:31:46;4.33;;;3.93;;
14316;SDS011;7242;50.858;6.586;2023-02-18T02:38:16;3.80;;;3.50;;
14316;SDS011;7242;50.858;6.586;2023-02-18T02:45:04;3.50;;;3.20;;
14316;SDS011;7242;50.858;6.586;2023-02-18T02:54:59;2.87;;;2.67;;
14316;SDS011;7242;50.858;6.586;2023-02-18T02:58:08;2.60;;;2.40;;
14316;SDS011;7242;50.858;6.586;2023-02-18T03:11:20;2.13;;;1.93;;
14316;SDS011;7242;50.858;6.586;2023-02-18T03:14:25;1.93;;;1.83;;
14316;SDS011;7242;50.858;6.586;2023-02-18T03:17:31;1.80;;;1.70;;
14316;SDS011;7242;50.858;6.586;2023-02-18T03:20:38;1.90;;;1.80;;
14316;SDS011;7242;50.858;6.586;2023-02-18T03:23:52;1.67;;;1.50;;
14316;SDS011;7242;50.858;6.586;2023-02-18T03:26:58;1.87;;;1.70;;
14316;SDS011;7242;50.858;6.586;2023-02-18T03:30:07;1.43;;;1.33;;
14316;SDS011;7242;50.858;6.586;2023-02-18T03:33:16;1.43;;;1.30;;
14316;SDS011;7242;50.858;6.586;2023-02-18T03:36:23;1.50;;;1.20;;
14316;SDS011;7242;50.858;6.586;2023-02-18T03:39:27;1.70;;;1.10;;
14316;SDS011;7242;50.858;6.586;2023-02-18T03:42:29;1.27;;;1.00;;
14316;SDS011;7242;50.858;6.586;2023-02-18T03:45:29;1.20;;;1.10;;
14316;SDS011;7242;50.858;6.586;2023-02-18T03:48:31;1.43;;;0.90;;
14316;SDS011;7242;50.858;6.586;2023-02-18T03:51:32;0.83;;;0.83;;
14316;SDS011;7242;50.858;6.586;2023-02-18T03:54:33;0.93;;;0.90;;
14316;SDS011;7242;50.858;6.586;2023-02-18T03:57:34;0.73;;;0.73;;
14316;SDS011;7242;50.858;6.586;2023-02-18T04:00:35;0.87;;;0.83;;
14316;SDS011;7242;50.858;6.586;2023-02-18T04:03:35;0.70;;;0.70;;
14316;SDS011;7242;50.858;6.586;2023-02-18T04:06:36;1.17;;;0.70;;
14316;SDS011;7242;50.858;6.586;2023-02-18T04:09:37;0.93;;;0.60;;
14316;SDS011;7242;50.858;6.586;2023-02-18T04:12:38;1.00;;;0.77;;
14316;SDS011;7242;50.858;6.586;2023-02-18T04:15:39;0.63;;;0.60;;
14316;SDS011;7242;50.858;6.586;2023-02-18T04:18:40;1.10;;;0.73;;
14316;SDS011;7242;50.858;6.586;2023-02-18T04:21:43;0.80;;;0.80;;
14316;SDS011;7242;50.858;6.586;2023-02-18T04:24:43;0.80;;;0.80;;
14316;SDS011;7242;50.858;6.586;2023-02-18T04:27:44;1.63;;;0.73;;
14316;SDS011;7242;50.858;6.586;2023-02-18T04:30:46;0.70;;;0.70;;
14316;SDS011;7242;50.858;6.586;2023-02-18T04:33:47;0.80;;;0.80;;
14316;SDS011;7242;50.858;6.586;2023-02-18T04:36:48;0.77;;;0.77;;
14316;SDS011;7242;50.858;6.586;2023-02-18T04:39:49;1.00;;;1.00;;
14316;SDS011;7242;50.858;6.586;2023-02-18T04:42:50;0.90;;;0.80;;
14316;SDS011;7242;50.858;6.586;2023-02-18T04:45:51;0.90;;;0.90;;
14316;SDS011;7242;50.858;6.586;2023-02-18T04:48:51;0.70;;;0.70;;
14316;SDS011;7242;50.858;6.586;2023-02-18T04:51:52;1.00;;;1.00;;
14316;SDS011;7242;50.858;6.586;2023-02-18T04:54:53;2.13;;;1.20;;
14316;SDS011;7242;50.858;6.586;2023-02-18T04:57:53;1.10;;;1.00;;
14316;SDS011;7242;50.858;6.586;2023-02-18T05:00:57;1.20;;;1.10;;
14316;SDS011;7242;50.858;6.586;2023-02-18T05:03:59;1.40;;;1.30;;
14316;SDS011;7242;50.858;6.586;2023-02-18T05:07:00;1.73;;;1.63;;
14316;SDS011;7242;50.858;6.586;2023-02-18T05:10:01;1.70;;;1.60;;
14316;SDS011;7242;50.858;6.586;2023-02-18T05:13:02;1.70;;;1.60;;
14316;SDS011;7242;50.858;6.586;2023-02-18T05:16:03;1.77;;;1.67;;
14316;SDS011;7242;50.858;6.586;2023-02-18T05:19:04;1.97;;;1.57;;
14316;SDS011;7242;50.858;6.586;2023-02-18T05:22:05;1.30;;;1.20;;
14316;SDS011;7242;50.858;6.586;2023-02-18T05:25:06;1.70;;;1.43;;
14316;SDS011;7242;50.858;6.586;2023-02-18T05:28:07;1.20;;;1.17;;
14316;SDS011;7242;50.858;6.586;2023-02-18T05:31:08;1.47;;;1.37;;
14316;SDS011;7242;50.858;6.586;2023-02-18T05:34:09;1.30;;;1.20;;
14316;SDS011;7242;50.858;6.586;2023-02-18T05:37:10;1.97;;;1.67;;
14316;SDS011;7242;50.858;6.586;2023-02-18T05:40:12;1.80;;;1.70;;
14316;SDS011;7242;50.858;6.586;2023-02-18T05:43:13;1.70;;;1.60;;
14316;SDS011;7242;50.858;6.586;2023-02-18T05:46:14;1.50;;;1.40;;
14316;SDS011;7242;50.858;6.586;2023-02-18T05:49:15;1.50;;;1.40;;
14316;SDS011;7242;50.858;6.586;2023-02-18T05:52:16;1.37;;;1.27;;
14316;SDS011;7242;50.858;6.586;2023-02-18T05:55:17;1.13;;;1.13;;
14316;SDS011;7242;50.858;6.586;2023-02-18T05:58:18;2.40;;;1.10;;
14316;SDS011;7242;50.858;6.586;2023-02-18T06:01:19;1.23;;;0.97;;
14316;SDS011;7242;50.858;6.586;2023-02-18T06:04:20;0.90;;;0.90;;
14316;SDS011;7242;50.858;6.586;2023-02-18T06:07:21;0.80;;;0.80;;
14316;SDS011;7242;50.858;6.586;2023-02-18T06:10:23;0.80;;;0.80;;
14316;SDS011;7242;50.858;6.586;2023-02-18T06:13:23;0.63;;;0.63;;
14316;SDS011;7242;50.858;6.586;2023-02-18T06:16:24;0.70;;;0.70;;
14316;SDS011;7242;50.858;6.586;2023-02-18T06:19:25;0.60;;;0.60;;
14316;SDS011;7242;50.858;6.586;2023-02-18T06:22:26;0.70;;;0.70;;
14316;SDS011;7242;50.858;6.586;2023-02-18T06:25:27;0.60;;;0.60;;
14316;SDS011;7242;50.858;6.586;2023-02-18T06:28:28;0.60;;;0.60;;
14316;SDS011;7242;50.858;6.586;2023-02-18T06:31:29;0.60;;;0.60;;
14316;SDS011;7242;50.858;6.586;2023-02-18T06:34:29;0.60;;;0.60;;
14316;SDS011;7242;50.858;6.586;2023-02-18T06:37:30;0.50;;;0.50;;
14316;SDS011;7242;50.858;6.586;2023-02-18T06:40:32;0.50;;;0.50;;
14316;SDS011;7242;50.858;6.586;2023-02-18T06:46:10;0.70;;;0.70;;
14316;SDS011;7242;50.858;6.586;2023-02-18T06:49:11;0.50;;;0.50;;
14316;SDS011;7242;50.858;6.586;2023-02-18T06:52:12;0.60;;;0.60;;
14316;SDS011;7242;50.858;6.586;2023-02-18T06:55:12;0.50;;;0.50;;
14316;SDS011;7242;50.858;6.586;2023-02-18T06:58:13;0.80;;;0.70;;
14316;SDS011;7242;50.858;6.586;2023-02-18T07:01:14;1.77;;;0.80;;
14316;SDS011;7242;50.858;6.586;2023-02-18T07:04:15;1.03;;;0.60;;
14316;SDS011;7242;50.858;6.586;2023-02-18T07:07:16;0.60;;;0.60;;
14316;SDS011;7242;50.858;6.586;2023-02-18T07:10:17;0.67;;;0.67;;
14316;SDS011;7242;50.858;6.586;2023-02-18T07:13:18;1.30;;;0.80;;
14316;SDS011;7242;50.858;6.586;2023-02-18T07:16:19;0.97;;;0.67;;
14316;SDS011;7242;50.858;6.586;2023-02-18T07:19:20;0.87;;;0.80;;
14316;SDS011;7242;50.858;6.586;2023-02-18T07:22:21;0.67;;;0.60;;
14316;SDS011;7242;50.858;6.586;2023-02-18T07:25:22;0.70;;;0.70;;
14316;SDS011;7242;50.858;6.586;2023-02-18T07:28:23;0.70;;;0.70;;
14316;SDS011;7242;50.858;6.586;2023-02-18T07:31:24;0.87;;;0.70;;
14316;SDS011;7242;50.858;6.586;2023-02-18T07:34:25;1.33;;;0.80;;
14316;SDS011;7242;50.858;6.586;2023-02-18T07:37:25;1.77;;;0.90;;
14316;SDS011;7242;50.858;6.586;2023-02-18T07:40:26;0.90;;;0.90;;
14316;SDS011;7242;50.858;6.586;2023-02-18T07:43:27;0.80;;;0.80;;
14316;SDS011;7242;50.858;6.586;2023-02-18T07:46:28;1.27;;;0.80;;
14316;SDS011;7242;50.858;6.586;2023-02-18T07:49:29;1.00;;;0.90;;
14316;SDS011;7242;50.858;6.586;2023-02-18T07:52:30;1.40;;;0.90;;
14316;SDS011;7242;50.858;6.586;2023-02-18T07:55:31;1.10;;;1.00;;
14316;SDS011;7242;50.858;6.586;2023-02-18T07:58:50;2.33;;;0.90;;
14316;SDS011;7242;50.858;6.586;2023-02-18T08:01:51;4.20;;;1.20;;
14316;SDS011;7242;50.858;6.586;2023-02-18T08:04:52;5.10;;;1.77;;
14316;SDS011;7242;50.858;6.586;2023-02-18T08:07:53;3.23;;;1.77;;
14316;SDS011;7242;50.858;6.586;2023-02-18T08:10:55;3.53;;;1.80;;
14316;SDS011;7242;50.858;6.586;2023-02-18T08:13:57;4.93;;;2.17;;
14316;SDS011;7242;50.858;6.586;2023-02-18T08:16:58;3.87;;;2.13;;
14316;SDS011;7242;50.858;6.586;2023-02-18T08:19:59;5.80;;;2.47;;
14316;SDS011;7242;50.858;6.586;2023-02-18T08:23:00;5.50;;;2.50;;
14316;SDS011;7242;50.858;6.586;2023-02-18T08:26:01;6.67;;;2.40;;
14316;SDS011;7242;50.858;6.586;2023-02-18T08:29:02;6.20;;;2.50;;
14316;SDS011;7242;50.858;6.586;2023-02-18T08:32:03;6.03;;;2.33;;
14316;SDS011;7242;50.858;6.586;2023-02-18T08:35:04;5.93;;;2.20;;
14316;SDS011;7242;50.858;6.586;2023-02-18T08:38:06;7.70;;;2.37;;
14316;SDS011;7242;50.858;6.586;2023-02-18T08:41:08;6.33;;;2.27;;
14316;SDS011;7242;50.858;6.586;2023-02-18T08:44:09;5.20;;;2.33;;
14316;SDS011;7242;50.858;6.586;2023-02-18T08:47:09;7.77;;;2.73;;
14316;SDS011;7242;50.858;6.586;2023-02-18T08:50:10;4.80;;;2.60;;
14316;SDS011;7242;50.858;6.586;2023-02-18T08:53:11;15.00;;;7.87;;
14316;SDS011;7242;50.858;6.586;2023-02-18T08:56:12;7.00;;;2.97;;
14316;SDS011;7242;50.858;6.586;2023-02-18T08:59:14;5.83;;;2.27;;
14316;SDS011;7242;50.858;6.586;2023-02-18T09:02:15;6.23;;;2.90;;
14316;SDS011;7242;50.858;6.586;2023-02-18T09:05:16;5.60;;;2.40;;
14316;SDS011;7242;50.858;6.586;2023-02-18T09:08:17;7.57;;;2.23;;
14316;SDS011;7242;50.858;6.586;2023-02-18T09:11:18;6.67;;;2.30;;
14316;SDS011;7242;50.858;6.586;2023-02-18T09:14:19;5.37;;;2.37;;
14316;SDS011;7242;50.858;6.586;2023-02-18T09:17:20;9.40;;;2.13;;
14316;SDS011;7242;50.858;6.586;2023-02-18T09:20:21;5.23;;;2.10;;
14316;SDS011;7242;50.858;6.586;2023-02-18T09:23:23;4.17;;;2.10;;
14316;SDS011;7242;50.858;6.586;2023-02-18T09:26:25;6.93;;;2.73;;
14316;SDS011;7242;50.858;6.586;2023-02-18T09:29:26;6.83;;;2.20;;
14316;SDS011;7242;50.858;6.586;2023-02-18T09:32:27;4.90;;;2.33;;
14316;SDS011;7242;50.858;6.586;2023-02-18T09:35:28;6.83;;;1.63;;
14316;SDS011;7242;50.858;6.586;2023-02-18T09:38:29;9.20;;;2.30;;
14316;SDS011;7242;50.858;6.586;2023-02-18T09:44:32;8.23;;;2.50;;
14316;SDS011;7242;50.858;6.586;2023-02-18T09:47:38;6.77;;;1.97;;
14316;SDS011;7242;50.858;6.586;2023-02-18T09:50:41;4.70;;;1.87;;
14316;SDS011;7242;50.858;6.586;2023-02-18T09:53:45;6.93;;;1.80;;
14316;SDS011;7242;50.858;6.586;2023-02-18T09:56:46;7.87;;;2.10;;
14316;SDS011;7242;50.858;6.586;2023-02-18T09:59:48;5.07;;;1.97;;
14316;SDS011;7242;50.858;6.586;2023-02-18T10:02:57;6.97;;;2.47;;
14316;SDS011;7242;50.858;6.586;2023-02-18T10:06:08;4.07;;;2.20;;
14316;SDS011;7242;50.858;6.586;2023-02-18T10:09:43;8.10;;;2.50;;
14316;SDS011;7242;50.858;6.586;2023-02-18T10:12:44;6.77;;;2.43;;
14316;SDS011;7242;50.858;6.586;2023-02-18T10:15:46;6.27;;;2.57;;
14316;SDS011;7242;50.858;6.586;2023-02-18T10:18:49;6.30;;;2.50;;
14316;SDS011;7242;50.858;6.586;2023-02-18T10:21:53;6.37;;;2.40;;
14316;SDS011;7242;50.858;6.586;2023-02-18T10:24:58;7.97;;;2.67;;
14316;SDS011;7242;50.858;6.586;2023-02-18T10:28:02;6.37;;;2.40;;
14316;SDS011;7242;50.858;6.586;2023-02-18T10:31:07;4.37;;;2.20;;
14316;SDS011;7242;50.858;6.586;2023-02-18T10:51:07;3.23;;;2.07;;
14316;SDS011;7242;50.858;6.586;2023-02-18T10:54:14;3.37;;;2.13;;
14316;SDS011;7242;50.858;6.586;2023-02-18T10:57:22;5.60;;;2.30;;
14316;SDS011;7242;50.858;6.586;2023-02-18T11:00:24;5.33;;;2.30;;
14316;SDS011;7242;50.858;6.586;2023-02-18T11:03:43;3.50;;;2.00;;
14316;SDS011;7242;50.858;6.586;2023-02-18T11:06:44;4.47;;;2.13;;
14316;SDS011;7242;50.858;6.586;2023-02-18T11:09:48;2.60;;;1.90;;
14316;SDS011;7242;50.858;6.586;2023-02-18T11:13:00;3.93;;;2.00;;
14316;SDS011;7242;50.858;6.586;2023-02-18T11:16:08;2.63;;;1.37;;
14316;SDS011;7242;50.858;6.586;2023-02-18T11:22:31;2.83;;;1.70;;
14316;SDS011;7242;50.858;6.586;2023-02-18T11:25:37;2.80;;;1.90;;
14316;SDS011;7242;50.858;6.586;2023-02-18T11:28:46;2.23;;;1.60;;
14316;SDS011;7242;50.858;6.586;2023-02-18T11:31:48;2.03;;;1.50;;
14316;SDS011;7242;50.858;6.586;2023-02-18T11:34:51;2.63;;;1.40;;
14316;SDS011;7242;50.858;6.586;2023-02-18T11:37:52;2.37;;;1.67;;
14316;SDS011;7242;50.858;6.586;2023-02-18T11:41:05;1.30;;;1.20;;
14316;SDS011;7242;50.858;6.586;2023-02-18T11:44:16;13.43;;;4.80;;
14316;SDS011;7242;50.858;6.586;2023-02-18T11:47:23;7.43;;;3.63;;
14316;SDS011;7242;50.858;6.586;2023-02-18T11:50:33;13.07;;;5.90;;
14316;SDS011;7242;50.858;6.586;2023-02-18T11:53:34;8.00;;;3.20;;
14316;SDS011;7242;50.858;6.586;2023-02-18T11:56:36;4.33;;;2.63;;
14316;SDS011;7242;50.858;6.586;2023-02-18T11:59:38;13.47;;;4.57;;
14316;SDS011;7242;50.858;6.586;2023-02-18T12:02:40;4.77;;;3.20;;
14316;SDS011;7242;50.858;6.586;2023-02-18T12:05:41;4.90;;;3.00;;
14316;SDS011;7242;50.858;6.586;2023-02-18T12:08:48;1.90;;;1.70;;
14316;SDS011;7242;50.858;6.586;2023-02-18T12:12:07;2.17;;;1.87;;
14316;SDS011;7242;50.858;6.586;2023-02-18T12:15:19;2.03;;;1.83;;
14316;SDS011;7242;50.858;6.586;2023-02-18T12:19:34;2.07;;;1.50;;
14316;SDS011;7242;50.858;6.586;2023-02-18T12:25:24;3.40;;;1.80;;
14316;SDS011;7242;50.858;6.586;2023-02-18T12:28:35;1.80;;;1.60;;
14316;SDS011;7242;50.858;6.586;2023-02-18T12:38:28;2.10;;;1.60;;
14316;SDS011;7242;50.858;6.586;2023-02-18T12:47:36;2.43;;;1.77;;
14316;SDS011;7242;50.858;6.586;2023-02-18T12:50:44;2.60;;;1.80;;
14316;SDS011;7242;50.858;6.586;2023-02-18T13:16:38;2.97;;;2.43;;
14316;SDS011;7242;50.858;6.586;2023-02-18T13:19:51;3.77;;;2.50;;
14316;SDS011;7242;50.858;6.586;2023-02-18T13:22:56;3.67;;;2.23;;
14316;SDS011;7242;50.858;6.586;2023-02-18T13:25:58;2.47;;;2.30;;
14316;SDS011;7242;50.858;6.586;2023-02-18T13:32:36;3.70;;;2.47;;
14316;SDS011;7242;50.858;6.586;2023-02-18T13:39:06;3.40;;;2.47;;
14316;SDS011;7242;50.858;6.586;2023-02-18T13:42:23;2.67;;;2.30;;
14316;SDS011;7242;50.858;6.586;2023-02-18T13:45:34;2.13;;;1.90;;
14316;SDS011;7242;50.858;6.586;2023-02-18T13:48:44;2.33;;;1.80;;
14316;SDS011;7242;50.858;6.586;2023-02-18T13:51:49;1.77;;;1.67;;
14316;SDS011;7242;50.858;6.586;2023-02-18T13:54:53;2.03;;;1.70;;
14316;SDS011;7242;50.858;6.586;2023-02-18T13:57:54;1.87;;;1.77;;
14316;SDS011;7242;50.858;6.586;2023-02-18T14:01:00;1.60;;;1.50;;
14316;SDS011;7242;50.858;6.586;2023-02-18T14:04:31;1.60;;;1.50;;
14316;SDS011;7242;50.858;6.586;2023-02-18T14:14:27;3.57;;;1.90;;
14316;SDS011;7242;50.858;6.586;2023-02-18T14:17:34;4.00;;;2.10;;
14316;SDS011;7242;50.858;6.586;2023-02-18T14:23:57;3.67;;;2.97;;
14316;SDS011;7242;50.858;6.586;2023-02-18T14:27:05;3.40;;;2.73;;
14316;SDS011;7242;50.858;6.586;2023-02-18T14:30:27;3.10;;;2.80;;
14316;SDS011;7242;50.858;6.586;2023-02-18T14:33:34;2.90;;;2.70;;
14316;SDS011;7242;50.858;6.586;2023-02-18T14:36:41;3.43;;;2.60;;
14316;SDS011;7242;50.858;6.586;2023-02-18T14:46:34;4.80;;;4.27;;
14316;SDS011;7242;50.858;6.586;2023-02-18T14:49:58;5.00;;;3.27;;
14316;SDS011;7242;50.858;6.586;2023-02-18T14:53:06;3.20;;;2.90;;
14316;SDS011;7242;50.858;6.586;2023-02-18T14:56:13;3.30;;;3.00;;
14316;SDS011;7242;50.858;6.586;2023-02-18T14:59:17;3.03;;;2.20;;
14316;SDS011;7242;50.858;6.586;2023-02-18T15:02:22;3.03;;;2.30;;
14316;SDS011;7242;50.858;6.586;2023-02-18T15:05:31;3.23;;;2.40;;
14316;SDS011;7242;50.858;6.586;2023-02-18T15:08:37;3.50;;;2.80;;
14316;SDS011;7242;50.858;6.586;2023-02-18T15:11:40;3.17;;;2.37;;
14316;SDS011;7242;50.858;6.586;2023-02-18T15:14:44;3.47;;;2.70;;
14316;SDS011;7242;50.858;6.586;2023-02-18T15:17:48;3.03;;;2.73;;
14316;SDS011;7242;50.858;6.586;2023-02-18T15:20:49;3.03;;;2.43;;
14316;SDS011;7242;50.858;6.586;2023-02-18T15:23:50;2.90;;;2.70;;
14316;SDS011;7242;50.858;6.586;2023-02-18T15:26:52;3.00;;;2.70;;
14316;SDS011;7242;50.858;6.586;2023-02-18T15:29:56;2.80;;;2.60;;
14316;SDS011;7242;50.858;6.586;2023-02-18T15:33:02;3.93;;;2.90;;
14316;SDS011;7242;50.858;6.586;2023-02-18T15:36:12;4.27;;;3.43;;
14316;SDS011;7242;50.858;6.586;2023-02-18T15:39:13;2.80;;;2.60;;
14316;SDS011;7242;50.858;6.586;2023-02-18T15:45:31;2.97;;;2.77;;
14316;SDS011;7242;50.858;6.586;2023-02-18T15:48:38;2.83;;;2.63;;
14316;SDS011;7242;50.858;6.586;2023-02-18T15:51:44;5.60;;;4.27;;
14316;SDS011;7242;50.858;6.586;2023-02-18T15:54:45;3.83;;;2.90;;
14316;SDS011;7242;50.858;6.586;2023-02-18T15:57:46;3.20;;;2.90;;
14316;SDS011;7242;50.858;6.586;2023-02-18T16:00:50;3.23;;;2.93;;
14316;SDS011;7242;50.858;6.586;2023-02-18T16:03:55;3.33;;;3.10;;
14316;SDS011;7242;50.858;6.586;2023-02-18T16:06:56;2.90;;;2.70;;
14316;SDS011;7242;50.858;6.586;2023-02-18T16:13:19;3.73;;;3.33;;
14316;SDS011;7242;50.858;6.586;2023-02-18T16:16:22;3.77;;;3.23;;
14316;SDS011;7242;50.858;6.586;2023-02-18T16:19:29;3.90;;;3.10;;
14316;SDS011;7242;50.858;6.586;2023-02-18T16:22:33;3.70;;;3.33;;
14316;SDS011;7242;50.858;6.586;2023-02-18T16:28:40;3.83;;;3.50;;
14316;SDS011;7242;50.858;6.586;2023-02-18T16:31:42;3.23;;;2.93;;
14316;SDS011;7242;50.858;6.586;2023-02-18T16:35:10;3.00;;;2.70;;
14316;SDS011;7242;50.858;6.586;2023-02-18T16:38:15;3.83;;;3.13;;
14316;SDS011;7242;50.858;6.586;2023-02-18T16:41:20;3.60;;;2.87;;
14316;SDS011;7242;50.858;6.586;2023-02-18T16:44:21;5.07;;;2.87;;
14316;SDS011;7242;50.858;6.586;2023-02-18T16:47:22;3.77;;;3.40;;
14316;SDS011;7242;50.858;6.586;2023-02-18T16:50:23;4.50;;;3.60;;
14316;SDS011;7242;50.858;6.586;2023-02-18T16:53:26;3.80;;;3.50;;
14316;SDS011;7242;50.858;6.586;2023-02-18T16:56:31;4.47;;;4.17;;
14316;SDS011;7242;50.858;6.586;2023-02-18T16:59:32;4.40;;;4.00;;
14316;SDS011;7242;50.858;6.586;2023-02-18T17:02:33;5.40;;;4.90;;
14316;SDS011;7242;50.858;6.586;2023-02-18T17:05:35;5.07;;;4.60;;
14316;SDS011;7242;50.858;6.586;2023-02-18T17:08:39;5.23;;;4.70;;
14316;SDS011;7242;50.858;6.586;2023-02-18T17:11:40;5.00;;;4.40;;
14316;SDS011;7242;50.858;6.586;2023-02-18T17:14:41;4.80;;;4.40;;
14316;SDS011;7242;50.858;6.586;2023-02-18T17:17:42;5.20;;;4.80;;
14316;SDS011;7242;50.858;6.586;2023-02-18T17:20:43;5.50;;;5.10;;
14316;SDS011;7242;50.858;6.586;2023-02-18T17:23:47;5.63;;;5.23;;
14316;SDS011;7242;50.858;6.586;2023-02-18T17:26:48;6.90;;;6.30;;
14316;SDS011;7242;50.858;6.586;2023-02-18T17:29:49;7.77;;;7.07;;
14316;SDS011;7242;50.858;6.586;2023-02-18T17:32:49;6.87;;;6.27;;
14316;SDS011;7242;50.858;6.586;2023-02-18T17:35:50;6.57;;;6.03;;
14316;SDS011;7242;50.858;6.586;2023-02-18T17:38:51;5.90;;;5.40;;
14316;SDS011;7242;50.858;6.586;2023-02-18T17:41:52;5.70;;;5.20;;
14316;SDS011;7242;50.858;6.586;2023-02-18T17:44:53;6.10;;;5.40;;
14316;SDS011;7242;50.858;6.586;2023-02-18T17:47:55;5.83;;;5.33;;
14316;SDS011;7242;50.858;6.586;2023-02-18T17:50:56;6.10;;;5.60;;
14316;SDS011;7242;50.858;6.586;2023-02-18T17:53:57;6.23;;;5.63;;
14316;SDS011;7242;50.858;6.586;2023-02-18T17:56:58;6.43;;;5.93;;
14316;SDS011;7242;50.858;6.586;2023-02-18T17:59:59;5.63;;;5.13;;
14316;SDS011;7242;50.858;6.586;2023-02-18T18:03:00;5.20;;;4.80;;
14316;SDS011;7242;50.858;6.586;2023-02-18T18:06:01;6.03;;;5.53;;
14316;SDS011;7242;50.858;6.586;2023-02-18T18:09:03;4.73;;;4.33;;
14316;SDS011;7242;50.858;6.586;2023-02-18T18:12:04;4.50;;;4.10;;
14316;SDS011;7242;50.858;6.586;2023-02-18T18:15:27;4.53;;;4.13;;
14316;SDS011;7242;50.858;6.586;2023-02-18T18:18:26;4.60;;;4.20;;
14316;SDS011;7242;50.858;6.586;2023-02-18T18:21:30;4.57;;;4.17;;
14316;SDS011;7242;50.858;6.586;2023-02-18T18:24:33;4.70;;;4.33;;
14316;SDS011;7242;50.858;6.586;2023-02-18T18:27:34;4.50;;;4.10;;
14316;SDS011;7242;50.858;6.586;2023-02-18T18:30:36;4.90;;;4.50;;
14316;SDS011;7242;50.858;6.586;2023-02-18T18:33:39;4.37;;;3.97;;
14316;SDS011;7242;50.858;6.586;2023-02-18T18:36:41;4.87;;;4.40;;
14316;SDS011;7242;50.858;6.586;2023-02-18T18:39:42;4.57;;;4.17;;
14316;SDS011;7242;50.858;6.586;2023-02-18T18:42:43;4.77;;;4.37;;
14316;SDS011;7242;50.858;6.586;2023-02-18T18:45:44;4.23;;;3.93;;
14316;SDS011;7242;50.858;6.586;2023-02-18T18:48:45;4.20;;;3.80;;
14316;SDS011;7242;50.858;6.586;2023-02-18T18:51:46;4.50;;;4.10;;
14316;SDS011;7242;50.858;6.586;2023-02-18T18:54:47;4.53;;;4.23;;
14316;SDS011;7242;50.858;6.586;2023-02-18T18:57:48;5.10;;;4.70;;
14316;SDS011;7242;50.858;6.586;2023-02-18T19:00:50;4.80;;;4.40;;
14316;SDS011;7242;50.858;6.586;2023-02-18T19:03:53;5.00;;;4.50;;
14316;SDS011;7242;50.858;6.586;2023-02-18T19:06:54;5.20;;;4.70;;
14316;SDS011;7242;50.858;6.586;2023-02-18T19:09:55;6.03;;;5.53;;
14316;SDS011;7242;50.858;6.586;2023-02-18T19:13:00;5.80;;;5.20;;
14316;SDS011;7242;50.858;6.586;2023-02-18T19:19:18;6.00;;;5.50;;
14316;SDS011;7242;50.858;6.586;2023-02-18T19:22:20;5.47;;;5.00;;
14316;SDS011;7242;50.858;6.586;2023-02-18T19:25:20;5.70;;;5.20;;
14316;SDS011;7242;50.858;6.586;2023-02-18T19:28:21;5.70;;;5.20;;
14316;SDS011;7242;50.858;6.586;2023-02-18T19:31:22;5.77;;;5.37;;
14316;SDS011;7242;50.858;6.586;2023-02-18T19:34:24;5.60;;;5.20;;
14316;SDS011;7242;50.858;6.586;2023-02-18T19:37:25;5.97;;;5.47;;
14316;SDS011;7242;50.858;6.586;2023-02-18T19:40:27;6.00;;;5.50;;
14316;SDS011;7242;50.858;6.586;2023-02-18T19:43:29;6.13;;;5.63;;
14316;SDS011;7242;50.858;6.586;2023-02-18T19:46:30;6.30;;;5.73;;
14316;SDS011;7242;50.858;6.586;2023-02-18T19:49:31;6.90;;;6.23;;
14316;SDS011;7242;50.858;6.586;2023-02-18T19:52:32;6.17;;;5.67;;
14316;SDS011;7242;50.858;6.586;2023-02-18T19:55:33;6.00;;;5.50;;
14316;SDS011;7242;50.858;6.586;2023-02-18T19:58:34;5.73;;;5.23;;
14316;SDS011;7242;50.858;6.586;2023-02-18T20:01:36;5.67;;;5.20;;
14316;SDS011;7242;50.858;6.586;2023-02-18T20:04:37;5.77;;;5.27;;
14316;SDS011;7242;50.858;6.586;2023-02-18T20:07:38;6.13;;;5.53;;
14316;SDS011;7242;50.858;6.586;2023-02-18T20:10:40;6.20;;;5.70;;
14316;SDS011;7242;50.858;6.586;2023-02-18T20:13:41;6.73;;;6.13;;
14316;SDS011;7242;50.858;6.586;2023-02-18T20:16:42;7.10;;;6.50;;
14316;SDS011;7242;50.858;6.586;2023-02-18T20:19:43;9.30;;;7.83;;
14316;SDS011;7242;50.858;6.586;2023-02-18T20:22:44;7.53;;;6.93;;
14316;SDS011;7242;50.858;6.586;2023-02-18T20:25:45;6.20;;;5.70;;
14316;SDS011;7242;50.858;6.586;2023-02-18T20:28:47;6.27;;;5.67;;
14316;SDS011;7242;50.858;6.586;2023-02-18T20:31:48;6.67;;;6.07;;
14316;SDS011;7242;50.858;6.586;2023-02-18T20:34:49;6.10;;;5.60;;
14316;SDS011;7242;50.858;6.586;2023-02-18T20:37:49;13.50;;;11.27;;
14316;SDS011;7242;50.858;6.586;2023-02-18T20:40:53;11.63;;;9.67;;
14316;SDS011;7242;50.858;6.586;2023-02-18T20:43:56;6.20;;;5.60;;
14316;SDS011;7242;50.858;6.586;2023-02-18T20:46:58;6.87;;;6.07;;
14316;SDS011;7242;50.858;6.586;2023-02-18T20:49:58;5.40;;;4.90;;
14316;SDS011;7242;50.858;6.586;2023-02-18T20:52:59;9.50;;;6.10;;
14316;SDS011;7242;50.858;6.586;2023-02-18T20:56:00;3.30;;;3.00;;
14316;SDS011;7242;50.858;6.586;2023-02-18T20:59:00;2.33;;;2.13;;
14316;SDS011;7242;50.858;6.586;2023-02-18T21:02:02;2.80;;;2.60;;